createdAt,value
2023-03-16T00:02:25.201Z,98971.25
2023-03-16T00:05:27.954Z,98970.50
2023-03-16T00:08:30.717Z,98978.00
2023-03-16T00:11:33.423Z,98976.63
2023-03-16T00:14:36.567Z,98977.13
2023-03-16T00:17:40.416Z,98978.84
2023-03-16T00:20:43.011Z,98978.66
2023-03-16T00:23:45.557Z,98971.81
2023-03-16T00:26:48.788Z,98976.00
2023-03-16T00:29:56.423Z,98974.44
2023-03-16T00:33:01.987Z,98970.53
2023-03-16T00:36:08.100Z,98974.03
2023-03-16T00:39:11.927Z,98975.09
2023-03-16T00:42:16.663Z,98974.78
2023-03-16T00:45:19.244Z,98982.19
2023-03-16T00:48:24.377Z,98979.16
2023-03-16T00:51:27.036Z,98975.84
2023-03-16T00:54:30.065Z,98973.97
2023-03-16T00:57:32.973Z,98971.28
2023-03-16T01:00:36.418Z,98966.41
2023-03-16T01:03:40.608Z,98969.16
2023-03-16T01:06:43.141Z,98971.19
2023-03-16T01:09:45.687Z,98963.91
2023-03-16T01:12:48.253Z,98965.00
2023-03-16T01:15:51.621Z,98969.81
2023-03-16T01:18:56.874Z,98960.13
2023-03-16T01:21:59.535Z,98966.00
2023-03-16T01:25:02.131Z,98966.00
2023-03-16T01:28:04.687Z,98961.69
2023-03-16T01:31:09.322Z,98963.38
2023-03-16T01:34:16.624Z,98959.16
2023-03-16T01:37:19.219Z,98953.69
2023-03-16T01:40:22.084Z,98952.34
2023-03-16T01:43:26.694Z,98957.13
2023-03-16T01:46:30.204Z,98951.03
2023-03-16T01:49:35.446Z,98946.72
2023-03-16T01:52:38.607Z,98956.34
2023-03-16T01:55:41.909Z,98957.00
2023-03-16T01:58:45.728Z,98951.72
2023-03-16T02:01:48.504Z,98944.75
2023-03-16T02:04:56.571Z,98943.22
2023-03-16T02:07:59.531Z,98939.22
2023-03-16T02:11:02.238Z,98942.97
2023-03-16T02:14:09.376Z,98936.22
2023-03-16T02:17:12.530Z,98933.75
2023-03-16T02:20:25.162Z,98932.22
2023-03-16T02:23:27.876Z,98926.38
2023-03-16T02:26:35.187Z,98924.16
2023-03-16T02:30:01.482Z,98925.50
2023-03-16T02:33:05.218Z,98923.94
2023-03-16T02:36:08.692Z,98925.50
2023-03-16T02:39:11.311Z,98925.91
2023-03-16T02:42:15.973Z,98922.28
2023-03-16T02:45:19.966Z,98922.53
2023-03-16T02:48:24.808Z,98917.63
2023-03-16T02:51:27.272Z,98908.69
2023-03-16T02:54:30.338Z,98909.94
2023-03-16T02:57:33.208Z,98917.81
2023-03-16T03:00:37.334Z,98912.97
2023-03-16T03:03:39.919Z,98908.31
2023-03-16T03:06:42.731Z,98906.13
2023-03-16T03:09:45.419Z,98907.59
2023-03-16T03:12:49.453Z,98895.72
2023-03-16T03:15:53.703Z,98901.34
2023-03-16T03:18:56.304Z,98908.66
2023-03-16T03:21:58.826Z,98911.59
2023-03-16T03:25:02.890Z,98909.06
2023-03-16T03:28:06.469Z,98910.28
2023-03-16T03:31:14.545Z,98902.06
2023-03-16T03:34:17.043Z,98895.41
2023-03-16T03:37:19.946Z,98884.41
2023-03-16T03:40:22.811Z,98875.59
2023-03-16T03:43:25.446Z,98880.03
2023-03-16T03:46:29.367Z,98884.91
2023-03-16T03:49:32.259Z,98876.28
2023-03-16T03:52:34.802Z,98879.47
2023-03-16T03:55:37.358Z,98884.28
2023-03-16T03:58:39.894Z,98877.22
2023-03-16T04:01:43.782Z,98875.63
2023-03-16T04:04:46.286Z,98871.06
2023-03-16T04:07:50.704Z,98873.72
2023-03-16T04:10:53.256Z,98865.25
2023-03-16T04:13:55.727Z,98871.63
2023-03-16T04:16:59.699Z,98874.84
2023-03-16T04:20:05.331Z,98873.22
2023-03-16T04:23:07.846Z,98875.38
2023-03-16T04:26:10.588Z,98878.16
2023-03-16T04:29:14.334Z,98870.72
2023-03-16T04:32:21.886Z,98860.25
2023-03-16T04:35:25.675Z,98863.00
2023-03-16T04:38:33.789Z,98856.81
2023-03-16T04:41:36.357Z,98846.56
2023-03-16T04:44:44.253Z,98848.69
2023-03-16T04:47:49.628Z,98851.13
2023-03-16T04:50:52.249Z,98854.94
2023-03-16T04:53:55.363Z,98851.63
2023-03-16T04:56:57.934Z,98846.88
2023-03-16T05:00:00.822Z,98853.06
2023-03-16T05:03:05.187Z,98861.88
2023-03-16T05:06:08.264Z,98861.59
2023-03-16T05:09:10.852Z,98853.31
2023-03-16T05:12:13.465Z,98849.56
2023-03-16T05:15:16.257Z,98851.63
2023-03-16T05:18:20.092Z,98853.25
2023-03-16T05:21:22.791Z,98852.19
2023-03-16T05:24:25.469Z,98849.16
2023-03-16T05:27:28.177Z,98850.56
2023-03-16T05:30:31.280Z,98856.50
2023-03-16T05:33:35.561Z,98849.41
2023-03-16T05:36:38.115Z,98855.84
2023-03-16T05:39:40.745Z,98851.13
2023-03-16T05:42:44.112Z,98857.72
2023-03-16T05:45:46.936Z,98847.25
2023-03-16T05:48:51.155Z,98841.63
2023-03-16T05:51:54.821Z,98834.97
2023-03-16T05:54:57.546Z,98836.34
2023-03-16T05:58:00.138Z,98842.84
2023-03-16T06:01:02.963Z,98838.34
2023-03-16T06:04:07.387Z,98842.91
2023-03-16T06:07:10.714Z,98837.03
2023-03-16T06:10:13.770Z,98835.84
2023-03-16T06:13:16.449Z,98841.53
2023-03-16T06:16:19.095Z,98838.84
2023-03-16T06:19:23.019Z,98843.22
2023-03-16T06:22:25.654Z,98833.69
2023-03-16T06:25:28.205Z,98841.28
2023-03-16T06:28:30.749Z,98835.19
2023-03-16T06:31:34.083Z,98843.84
2023-03-16T06:34:38.391Z,98846.25
2023-03-16T06:37:41.079Z,98842.81
2023-03-16T06:40:43.649Z,98847.25
2023-03-16T06:43:47.252Z,98851.03
2023-03-16T06:46:49.767Z,98850.34
2023-03-16T06:49:55.238Z,98846.63
2023-03-16T06:52:57.770Z,98841.56
2023-03-16T06:56:01.164Z,98849.22
2023-03-16T06:59:03.695Z,98849.50
2023-03-16T07:02:06.930Z,98850.41
2023-03-16T07:05:13.125Z,98845.38
2023-03-16T07:08:16.109Z,98853.50
2023-03-16T07:11:18.631Z,98848.47
2023-03-16T07:14:23.254Z,98848.06
2023-03-16T07:17:26.001Z,98850.81
2023-03-16T07:20:32.242Z,98860.09
2023-03-16T07:23:34.881Z,98851.53
2023-03-16T07:26:37.685Z,98858.88
2023-03-16T07:29:40.192Z,98855.97
2023-03-16T07:32:42.934Z,98863.28
2023-03-16T07:35:46.933Z,98867.63
2023-03-16T07:38:49.498Z,98864.44
2023-03-16T07:41:52.102Z,98858.25
2023-03-16T07:44:54.755Z,98860.69
2023-03-16T07:47:57.358Z,98854.22
2023-03-16T07:51:01.672Z,98866.66
2023-03-16T07:54:04.364Z,98861.25
2023-03-16T07:57:07.208Z,98861.75
2023-03-16T08:00:11.158Z,98862.00
2023-03-16T08:03:13.962Z,98860.34
2023-03-16T08:06:18.164Z,98852.72
2023-03-16T08:09:21.304Z,98860.25
2023-03-16T08:12:23.962Z,98858.84
2023-03-16T08:15:26.668Z,98862.59
2023-03-16T08:18:29.785Z,98857.97
2023-03-16T08:21:35.121Z,98859.50
2023-03-16T08:24:40.556Z,98862.09
2023-03-16T08:27:43.372Z,98859.59
2023-03-16T08:30:47.930Z,98858.19
2023-03-16T08:33:50.830Z,98852.63
2023-03-16T08:36:55.326Z,98857.06
2023-03-16T08:40:00.438Z,98840.97
2023-03-16T08:43:03.804Z,98844.06
2023-03-16T08:46:06.938Z,98836.78
2023-03-16T08:49:09.708Z,98838.84
2023-03-16T08:52:13.924Z,98833.63
2023-03-16T08:55:16.850Z,98825.94
2023-03-16T08:58:19.834Z,98830.66
2023-03-16T09:01:22.691Z,98833.19
2023-03-16T09:04:25.364Z,98822.38
2023-03-16T09:07:29.291Z,98820.72
2023-03-16T09:10:33.139Z,98828.13
2023-03-16T09:13:36.444Z,98827.84
2023-03-16T09:16:39.432Z,98826.41
2023-03-16T09:19:52.166Z,98830.19
2023-03-16T09:22:57.571Z,98821.72
2023-03-16T09:26:01.623Z,98820.81
2023-03-16T09:29:06.816Z,98809.34
2023-03-16T09:32:10.472Z,98796.66
2023-03-16T09:35:13.019Z,98796.84
2023-03-16T09:38:17.667Z,98800.88
2023-03-16T09:41:32.405Z,98808.47
2023-03-16T09:44:40.480Z,98796.56
2023-03-16T09:47:43.575Z,98795.44
2023-03-16T09:50:49.265Z,98788.16
2023-03-16T09:53:59.169Z,98780.34
2023-03-16T09:57:02.272Z,98780.97
2023-03-16T10:00:17.248Z,98776.44
2023-03-16T10:03:32.280Z,98775.81
2023-03-16T10:06:37.233Z,98776.47
2023-03-16T10:09:44.536Z,98767.97
2023-03-16T10:12:51.515Z,98767.09
2023-03-16T10:15:55.295Z,98770.19
2023-03-16T10:19:02.398Z,98766.66
2023-03-16T10:22:18.524Z,98778.59
2023-03-16T10:25:25.051Z,98775.69
2023-03-16T10:28:29.425Z,98774.72
2023-03-16T10:31:35.080Z,98770.06
2023-03-16T10:34:37.755Z,98760.44
2023-03-16T10:37:40.536Z,98756.25
2023-03-16T10:40:44.588Z,98746.41
2023-03-16T10:43:49.217Z,98759.13
2023-03-16T10:47:00.703Z,98756.22
2023-03-16T10:50:14.272Z,98751.22
2023-03-16T10:53:20.963Z,98751.03
2023-03-16T10:56:28.123Z,98742.19
2023-03-16T10:59:34.209Z,98731.47
2023-03-16T11:02:36.805Z,98728.25
2023-03-16T11:05:39.622Z,98720.59
2023-03-16T11:08:42.442Z,98708.94
2023-03-16T11:11:49.905Z,98717.16
2023-03-16T11:14:54.010Z,98722.78
2023-03-16T11:17:57.437Z,98730.31
2023-03-16T11:21:04.989Z,98716.31
2023-03-16T11:24:17.083Z,98711.69
2023-03-16T11:27:26.147Z,98711.22
2023-03-16T11:30:31.452Z,98708.25
2023-03-16T11:33:34.822Z,98700.03
2023-03-16T11:36:45.624Z,98698.72
2023-03-16T11:39:56.361Z,98705.78
2023-03-16T11:43:06.139Z,98703.06
2023-03-16T11:46:11.871Z,98698.91
2023-03-16T11:49:32.695Z,98702.78
2023-03-16T11:52:46.263Z,98699.97
2023-03-16T11:56:00.640Z,98693.38
2023-03-16T11:59:23.030Z,98681.47
2023-03-16T12:02:46.346Z,98671.56
2023-03-16T12:05:57.100Z,98669.38
2023-03-16T12:09:16.896Z,98665.41
2023-03-16T12:12:30.838Z,98652.38
2023-03-16T12:15:38.432Z,98651.72
2023-03-16T12:18:44.777Z,98638.91
2023-03-16T12:21:49.952Z,98631.47
2023-03-16T12:24:53.288Z,98635.38
2023-03-16T12:27:57.907Z,98653.25
2023-03-16T12:31:09.458Z,98652.31
2023-03-16T12:34:20.711Z,98653.81
2023-03-16T12:37:29.544Z,98643.97
2023-03-16T12:40:34.780Z,98633.03
2023-03-16T12:43:49.719Z,98629.03
2023-03-16T12:46:57.685Z,98640.63
2023-03-16T12:50:06.051Z,98637.69
2023-03-16T12:53:08.656Z,98627.56
2023-03-16T12:56:12.855Z,98621.88
2023-03-16T12:59:19.625Z,98623.41
2023-03-16T13:02:26.955Z,98613.88
2023-03-16T13:05:32.110Z,98612.97
2023-03-16T13:08:42.575Z,98609.59
2023-03-16T13:11:50.228Z,98608.25
2023-03-16T13:14:54.783Z,98612.22
2023-03-16T13:18:23.278Z,98607.03
2023-03-16T13:21:36.503Z,98600.31
2023-03-16T13:24:41.002Z,98602.66
2023-03-16T13:27:45.538Z,98595.16
2023-03-16T13:30:49.485Z,98584.78
2023-03-16T13:33:55.583Z,98583.13
2023-03-16T13:36:59.655Z,98583.03
2023-03-16T13:40:04.393Z,98577.28
2023-03-16T13:43:07.075Z,98574.75
2023-03-16T13:46:17.132Z,98571.25
2023-03-16T13:49:21.329Z,98567.38
2023-03-16T13:52:26.834Z,98570.09
2023-03-16T13:55:32.859Z,98558.63
2023-03-16T13:58:37.852Z,98551.50
2023-03-16T14:01:45.515Z,98554.50
2023-03-16T14:04:49.755Z,98558.13
2023-03-16T14:07:52.700Z,98554.72
2023-03-16T14:10:59.820Z,98555.88
2023-03-16T14:14:15.983Z,98551.31
2023-03-16T14:17:20.688Z,98532.16
2023-03-16T14:20:26.004Z,98532.44
2023-03-16T14:23:34.091Z,98513.81
2023-03-16T14:26:44.129Z,98503.47
2023-03-16T14:29:47.373Z,98501.47
2023-03-16T14:32:58.786Z,98501.66
2023-03-16T14:36:13.017Z,98496.09
2023-03-16T14:39:18.194Z,98497.78
2023-03-16T14:42:24.362Z,98488.38
2023-03-16T14:45:31.627Z,98473.75
2023-03-16T14:48:35.278Z,98467.41
2023-03-16T14:51:41.083Z,98467.19
2023-03-16T14:54:43.696Z,98472.00
2023-03-16T14:57:46.944Z,98478.09
2023-03-16T15:00:53.259Z,98473.88
2023-03-16T15:03:56.586Z,98482.19
2023-03-16T15:07:00.720Z,98486.19
2023-03-16T15:10:09.822Z,98490.09
2023-03-16T15:13:16.899Z,98480.97
2023-03-16T15:16:21.680Z,98481.59
2023-03-16T15:19:24.252Z,98468.88
2023-03-16T15:22:32.356Z,98471.84
2023-03-16T15:25:36.849Z,98463.81
2023-03-16T15:28:39.603Z,98468.47
2023-03-16T15:31:42.350Z,98464.47
2023-03-16T15:34:46.442Z,98452.53
2023-03-16T15:37:50.454Z,98456.78
2023-03-16T15:40:53.562Z,98449.34
2023-03-16T15:44:00.657Z,98451.38
2023-03-16T15:47:04.446Z,98455.19
2023-03-16T15:50:08.514Z,98463.59
2023-03-16T15:53:29.829Z,98463.41
2023-03-16T15:56:47.224Z,98466.94
2023-03-16T15:59:53.823Z,98471.56
2023-03-16T16:02:57.862Z,98465.72
2023-03-16T16:06:00.348Z,98457.81
2023-03-16T16:09:04.544Z,98460.16
2023-03-16T16:12:10.429Z,98455.97
2023-03-16T16:15:20.048Z,98451.69
2023-03-16T16:18:30.171Z,98447.41
2023-03-16T16:21:35.039Z,98450.03
2023-03-16T16:24:39.604Z,98461.25
2023-03-16T16:27:42.420Z,98454.50
2023-03-16T16:30:45.377Z,98453.28
2023-03-16T16:33:47.986Z,98445.31
2023-03-16T16:36:50.788Z,98446.81
2023-03-16T16:39:54.836Z,98455.28
2023-03-16T16:42:57.404Z,98457.69
2023-03-16T16:46:00.345Z,98451.13
2023-03-16T16:49:06.685Z,98440.78
2023-03-16T16:52:12.366Z,98446.91
2023-03-16T16:55:16.332Z,98446.94
2023-03-16T16:58:24.493Z,98438.38
2023-03-16T17:01:29.663Z,98438.59
2023-03-16T17:04:32.521Z,98436.94
2023-03-16T17:07:35.171Z,98432.41
2023-03-16T17:10:40.340Z,98435.53
2023-03-16T17:13:43.116Z,98434.22
2023-03-16T17:16:47.565Z,98435.97
2023-03-16T17:19:50.140Z,98438.44
2023-03-16T17:22:54.952Z,98430.81
2023-03-16T17:26:00.876Z,98428.16
2023-03-16T17:29:06.964Z,98430.34
2023-03-16T17:32:18.654Z,98437.22
2023-03-16T17:35:21.526Z,98432.44
2023-03-16T17:38:25.611Z,98436.81
2023-03-16T17:41:32.961Z,98429.50
2023-03-16T17:44:39.016Z,98422.91
2023-03-16T17:47:41.633Z,98427.97
2023-03-16T17:50:46.060Z,98431.66
2023-03-16T17:53:49.011Z,98437.25
2023-03-16T17:56:53.643Z,98433.88
2023-03-16T17:59:56.442Z,98432.13
2023-03-16T18:03:00.874Z,98429.56
2023-03-16T18:06:04.636Z,98426.41
2023-03-16T18:09:07.583Z,98432.03
2023-03-16T18:12:30.204Z,98435.13
2023-03-16T18:15:34.869Z,98431.91
2023-03-16T18:18:39.577Z,98434.47
2023-03-16T18:21:42.240Z,98438.16
2023-03-16T18:24:44.939Z,98433.34
2023-03-16T18:27:49.588Z,98437.69
2023-03-16T18:30:53.576Z,98436.88
2023-03-16T18:33:57.440Z,98437.47
2023-03-16T18:37:06.887Z,98435.75
2023-03-16T18:40:12.642Z,98433.97
2023-03-16T18:43:18.132Z,98437.78
2023-03-16T18:46:26.211Z,98427.88
2023-03-16T18:49:32.839Z,98423.75
2023-03-16T18:52:37.111Z,98433.84
2023-03-16T18:55:44.937Z,98423.28
2023-03-16T18:58:49.159Z,98419.47
2023-03-16T19:01:51.744Z,98416.59
2023-03-16T19:04:54.735Z,98418.63
2023-03-16T19:07:57.500Z,98421.34
2023-03-16T19:11:02.103Z,98420.38
2023-03-16T19:14:14.310Z,98409.91
2023-03-16T19:17:16.966Z,98412.28
2023-03-16T19:20:21.129Z,98397.56
2023-03-16T19:23:26.383Z,98402.19
2023-03-16T19:26:29.405Z,98400.13
2023-03-16T19:29:35.132Z,98405.59
2023-03-16T19:32:38.701Z,98402.44
2023-03-16T19:35:51.366Z,98407.84
2023-03-16T19:38:54.870Z,98402.28
2023-03-16T19:41:59.138Z,98405.22
2023-03-16T19:45:03.963Z,98410.88
2023-03-16T19:48:11.655Z,98410.06
2023-03-16T19:51:15.949Z,98406.06
2023-03-16T19:54:22.577Z,98404.09
2023-03-16T19:57:25.263Z,98406.13
2023-03-16T20:00:30.976Z,98406.34
2023-03-16T20:03:36.432Z,98401.44
2023-03-16T20:06:39.058Z,98397.47
2023-03-16T20:09:41.657Z,98394.06
2023-03-16T20:12:44.338Z,98394.88
2023-03-16T20:15:48.417Z,98392.06
2023-03-16T20:18:54.755Z,98392.91
2023-03-16T20:21:57.222Z,98396.22
2023-03-16T20:25:02.200Z,98390.94
2023-03-16T20:28:05.302Z,98389.16
2023-03-16T20:31:18.412Z,98393.56
2023-03-16T20:34:23.522Z,98394.59
2023-03-16T20:37:27.840Z,98398.78
2023-03-16T20:40:30.581Z,98401.75
2023-03-16T20:43:33.466Z,98402.53
2023-03-16T20:46:41.090Z,98404.03
2023-03-16T20:49:44.542Z,98402.13
2023-03-16T20:52:47.788Z,98395.19
2023-03-16T20:55:50.723Z,98399.19
2023-03-16T20:58:56.075Z,98384.03
2023-03-16T21:02:01.088Z,98389.94
2023-03-16T21:05:06.458Z,98383.53
2023-03-16T21:08:09.476Z,98400.28
2023-03-16T21:11:21.205Z,98394.84
2023-03-16T21:14:24.716Z,98382.50
2023-03-16T21:17:31.817Z,98392.53
2023-03-16T21:20:36.550Z,98384.28
2023-03-16T21:23:39.169Z,98377.16
2023-03-16T21:26:43.261Z,98383.69
2023-03-16T21:29:45.940Z,98379.06
2023-03-16T21:32:49.908Z,98379.22
2023-03-16T21:35:52.515Z,98376.44
2023-03-16T21:38:56.404Z,98382.34
2023-03-16T21:41:59.024Z,98371.59
2023-03-16T21:45:01.795Z,98369.41
2023-03-16T21:48:06.283Z,98376.25
2023-03-16T21:51:14.370Z,98372.84
2023-03-16T21:54:19.209Z,98370.22
2023-03-16T21:57:22.111Z,98366.72
2023-03-16T22:00:26.769Z,98365.69
2023-03-16T22:03:47.978Z,98360.00
2023-03-16T22:06:52.141Z,98361.91
2023-03-16T22:09:54.688Z,98357.38
2023-03-16T22:12:58.248Z,98356.16
2023-03-16T22:16:00.914Z,98358.34
2023-03-16T22:19:05.815Z,98355.88
2023-03-16T22:22:11.189Z,98350.13
2023-03-16T22:25:15.257Z,98353.13
2023-03-16T22:28:18.004Z,98352.63
2023-03-16T22:31:22.382Z,98357.16
2023-03-16T22:34:32.493Z,98345.09
2023-03-16T22:37:35.179Z,98342.47
2023-03-16T22:40:39.220Z,98337.22
2023-03-16T22:43:44.046Z,98337.22
2023-03-16T22:46:46.797Z,98334.81
2023-03-16T22:49:51.048Z,98331.97
2023-03-16T22:52:55.627Z,98326.22
2023-03-16T22:55:58.304Z,98323.91
2023-03-16T22:59:03.619Z,98333.31
2023-03-16T23:02:07.154Z,98316.66
2023-03-16T23:05:19.703Z,98320.59
2023-03-16T23:08:24.188Z,98323.38
2023-03-16T23:11:28.652Z,98319.47
2023-03-16T23:14:33.941Z,98326.94
2023-03-16T23:17:36.593Z,98321.09
2023-03-16T23:20:40.528Z,98320.66
2023-03-16T23:23:48.311Z,98317.81
2023-03-16T23:26:59.781Z,98313.94
2023-03-16T23:30:02.473Z,98308.69
2023-03-16T23:33:05.227Z,98303.19
2023-03-16T23:36:15.294Z,98296.75
2023-03-16T23:39:17.936Z,98301.41
2023-03-16T23:42:20.497Z,98296.69
2023-03-16T23:45:27.300Z,98307.50
2023-03-16T23:48:30.003Z,98296.59
2023-03-16T23:51:37.024Z,98306.41
2023-03-16T23:54:39.666Z,98309.72
2023-03-16T23:57:42.323Z,98316.19
